EKST weather

Sydfyn (Tasinge) Airport
Tasinge, South Denmark, Denmark

Public forecast

Using degrees Celsius for public forecast. Weather courtesy of forecast.io.

Closest aviation weather report (METAR) to Sydfyn (Tasinge) Airport

Closest report is S√łnderborg Airport, 26.8 nm (49.6 km) W. Retrieved 2020/04/09 22:20 UTC (17 minutes ago):

EKSB 092220Z AUTO 32012KT 9999NDV NCD 05/01 Q1027

Closest aviation forecast (TAF) to Sydfyn (Tasinge) Airport

Forecast is more than 12 hours old.

Closest forecast is S√łnderborg Airport, 26.8 nm (49.6 km) W. Retrieved 2016/01/27 09:03 UTC (4 years ago):

TAF TAF EKSB 270856Z 2709/2721 23022KT 5000 -RA BR BKN008 TEMPO 2709/2721 24025G40KT 2000 RADZ BKN004